createdAt,value
2018-10-16T00:01:34.991Z,100.87
2018-10-16T00:04:03.725Z,100.93
2018-10-16T00:06:32.447Z,102.37
2018-10-16T00:09:01.148Z,100.50
2018-10-16T00:11:29.864Z,101.87
2018-10-16T00:13:58.575Z,99.87
2018-10-16T00:16:27.304Z,101.37
2018-10-16T00:18:56.003Z,99.57
2018-10-16T00:21:24.744Z,101.03
2018-10-16T00:23:53.452Z,102.33
2018-10-16T00:26:22.168Z,99.60
2018-10-16T00:28:50.880Z,100.33
2018-10-16T00:31:19.584Z,98.93
2018-10-16T00:33:48.294Z,102.80
2018-10-16T00:36:17.016Z,100.97
2018-10-16T00:38:45.737Z,100.27
2018-10-16T00:41:14.453Z,101.73
2018-10-16T00:43:43.155Z,99.83
2018-10-16T00:46:11.872Z,101.07
2018-10-16T00:48:40.579Z,101.40
2018-10-16T00:51:09.294Z,100.33
2018-10-16T00:53:38.006Z,101.30
2018-10-16T00:56:06.813Z,101.00
2018-10-16T00:58:35.564Z,100.60
2018-10-16T01:01:04.289Z,102.57
2018-10-16T01:03:33.013Z,100.30
2018-10-16T01:06:01.727Z,99.90
2018-10-16T01:08:30.430Z,99.20
2018-10-16T01:10:59.145Z,100.93
2018-10-16T01:13:27.855Z,103.50
2018-10-16T01:15:56.575Z,100.57
2018-10-16T01:18:25.295Z,100.03
2018-10-16T01:20:54.027Z,103.97
2018-10-16T01:23:22.732Z,100.30
2018-10-16T01:25:51.440Z,101.50
2018-10-16T01:28:20.160Z,102.70
2018-10-16T01:30:48.873Z,100.63
2018-10-16T01:33:17.595Z,103.83
2018-10-16T01:35:46.308Z,101.07
2018-10-16T01:38:15.031Z,100.47
2018-10-16T01:40:43.745Z,101.33
2018-10-16T01:43:12.460Z,103.90
2018-10-16T01:45:41.165Z,100.37
2018-10-16T01:48:09.885Z,102.40
2018-10-16T01:50:38.595Z,101.53
2018-10-16T01:53:07.316Z,101.20
2018-10-16T01:55:36.020Z,98.93
2018-10-16T01:58:04.732Z,98.63
2018-10-16T02:00:34.002Z,104.03
2018-10-16T02:03:02.721Z,100.67
2018-10-16T02:05:31.435Z,102.53
2018-10-16T02:08:00.164Z,100.70
2018-10-16T02:10:28.868Z,100.27
2018-10-16T02:12:57.600Z,101.40
2018-10-16T02:15:26.312Z,100.17
2018-10-16T02:17:55.031Z,100.33
2018-10-16T02:20:23.731Z,103.37
2018-10-16T02:22:52.443Z,100.03
2018-10-16T02:25:21.176Z,100.43
2018-10-16T02:27:49.900Z,99.87
2018-10-16T02:30:18.607Z,99.73
2018-10-16T02:32:47.320Z,101.63
2018-10-16T02:35:16.040Z,100.87
2018-10-16T02:37:44.752Z,98.87
2018-10-16T02:40:13.473Z,101.23
2018-10-16T02:42:42.184Z,99.23
2018-10-16T02:45:11.556Z,100.87
2018-10-16T02:47:40.555Z,100.27
2018-10-16T02:50:10.314Z,103.33
2018-10-16T02:52:39.351Z,99.80
2018-10-16T02:55:09.181Z,100.27
2018-10-16T02:57:38.009Z,99.10
2018-10-16T03:00:06.960Z,101.03
2018-10-16T03:02:35.689Z,99.50
2018-10-16T03:05:04.432Z,100.77
2018-10-16T03:07:33.140Z,101.13
2018-10-16T03:10:01.864Z,100.50
2018-10-16T03:12:30.572Z,101.87
2018-10-16T03:14:59.293Z,100.90
2018-10-16T03:17:28.001Z,101.33
2018-10-16T03:19:56.720Z,99.23
2018-10-16T03:22:25.433Z,100.60
2018-10-16T03:24:54.144Z,100.20
2018-10-16T03:27:22.851Z,102.00
2018-10-16T03:29:51.568Z,100.47
2018-10-16T03:32:20.272Z,98.83
2018-10-16T03:34:48.992Z,100.60
2018-10-16T03:37:17.701Z,101.13
2018-10-16T03:39:46.416Z,101.10
2018-10-16T03:42:15.133Z,100.97
2018-10-16T03:44:43.839Z,100.83
2018-10-16T03:47:12.560Z,102.17
2018-10-16T03:49:41.355Z,99.67
2018-10-16T03:52:10.085Z,100.70
2018-10-16T03:54:38.796Z,100.93
2018-10-16T03:57:07.580Z,102.80
2018-10-16T03:59:36.229Z,101.67
2018-10-16T04:02:05.191Z,100.43
2018-10-16T04:04:33.892Z,99.27
2018-10-16T04:07:02.604Z,99.37
2018-10-16T04:09:31.320Z,101.37
2018-10-16T04:12:00.037Z,99.80
2018-10-16T04:14:28.745Z,101.17
2018-10-16T04:16:57.456Z,99.53
2018-10-16T04:19:26.164Z,100.73
2018-10-16T04:21:54.883Z,100.57
2018-10-16T04:24:25.322Z,100.20
2018-10-16T04:26:56.301Z,101.33
2018-10-16T04:29:25.012Z,101.03
2018-10-16T04:31:53.743Z,100.90
2018-10-16T04:34:22.453Z,99.23
2018-10-16T04:36:51.168Z,100.60
2018-10-16T04:39:19.917Z,100.00
2018-10-16T04:41:48.625Z,99.37
2018-10-16T04:44:17.342Z,101.17
2018-10-16T04:46:46.048Z,100.03
2018-10-16T04:49:14.764Z,101.97
2018-10-16T04:51:43.474Z,99.43
2018-10-16T04:54:12.188Z,99.40
2018-10-16T04:56:41.533Z,101.47
2018-10-16T04:59:10.246Z,100.50
2018-10-16T05:01:38.955Z,100.40
2018-10-16T05:04:08.056Z,99.00
2018-10-16T05:06:37.112Z,98.93
2018-10-16T05:09:06.648Z,99.33
2018-10-16T05:11:39.708Z,98.50
2018-10-16T05:14:08.468Z,100.23
2018-10-16T05:16:37.176Z,98.93
2018-10-16T05:19:06.049Z,99.40
2018-10-16T05:21:34.625Z,100.90
2018-10-16T05:24:03.344Z,101.63
2018-10-16T05:26:32.059Z,100.93
2018-10-16T05:29:00.776Z,100.57
2018-10-16T05:31:29.636Z,98.70
2018-10-16T05:33:58.196Z,99.47
2018-10-16T05:36:26.920Z,99.43
2018-10-16T05:38:55.652Z,101.43
2018-10-16T05:41:24.364Z,103.83
2018-10-16T05:43:53.082Z,102.03
2018-10-16T05:46:21.795Z,99.40
2018-10-16T05:48:50.523Z,99.57
2018-10-16T05:51:19.488Z,99.53
2018-10-16T05:53:48.199Z,99.40
2018-10-16T05:56:16.920Z,99.93
2018-10-16T05:58:45.640Z,99.17
2018-10-16T06:01:14.357Z,105.10
2018-10-16T06:03:43.055Z,112.80
2018-10-16T06:06:11.792Z,114.07
2018-10-16T06:08:40.499Z,125.50
2018-10-16T06:11:09.219Z,124.43
2018-10-16T06:13:37.932Z,117.03
2018-10-16T06:16:06.754Z,118.73
2018-10-16T06:18:35.348Z,115.97
2018-10-16T06:21:04.060Z,119.37
2018-10-16T06:23:33.248Z,107.50
2018-10-16T06:26:01.969Z,112.70
2018-10-16T06:28:30.686Z,104.80
2018-10-16T06:30:59.392Z,104.00
2018-10-16T06:33:30.556Z,101.73
2018-10-16T06:35:59.268Z,106.83
2018-10-16T06:38:27.967Z,101.30
2018-10-16T06:40:56.778Z,101.80
2018-10-16T06:43:25.403Z,103.97
2018-10-16T06:45:54.167Z,104.27
2018-10-16T06:48:23.095Z,101.23
2018-10-16T06:50:51.611Z,105.53
2018-10-16T06:53:20.414Z,103.47
2018-10-16T06:55:49.036Z,99.47
2018-10-16T06:58:17.754Z,105.37
2018-10-16T07:00:46.463Z,105.23
2018-10-16T07:03:15.226Z,101.50
2018-10-16T07:05:43.992Z,103.90
2018-10-16T07:08:12.711Z,108.53
2018-10-16T07:10:41.468Z,104.67
2018-10-16T07:13:10.197Z,105.33
2018-10-16T07:15:38.911Z,102.60
2018-10-16T07:18:07.636Z,107.63
2018-10-16T07:20:36.359Z,105.17
2018-10-16T07:23:05.101Z,113.00
2018-10-16T07:25:33.838Z,110.03
2018-10-16T07:28:03.104Z,103.43
2018-10-16T07:30:31.824Z,110.73
2018-10-16T07:33:00.549Z,109.73
2018-10-16T07:35:29.260Z,107.87
2018-10-16T07:37:58.083Z,108.23
2018-10-16T07:40:26.712Z,105.07
2018-10-16T07:42:55.465Z,107.17
2018-10-16T07:45:24.194Z,179.57
2018-10-16T07:47:52.951Z,158.57
2018-10-16T07:50:21.668Z,162.10
2018-10-16T07:52:50.380Z,141.90
2018-10-16T07:55:19.096Z,112.23
2018-10-16T07:57:48.305Z,114.40
2018-10-16T08:00:17.017Z,119.33
2018-10-16T08:02:45.724Z,123.80
2018-10-16T08:05:14.435Z,124.37
2018-10-16T08:07:43.168Z,116.83
2018-10-16T08:10:13.225Z,112.00
2018-10-16T08:12:42.419Z,139.97
2018-10-16T08:15:11.516Z,121.33
2018-10-16T08:17:40.803Z,117.30
2018-10-16T08:20:09.530Z,116.20
2018-10-16T08:22:38.591Z,115.23
2018-10-16T08:25:07.494Z,116.10
2018-10-16T08:27:36.379Z,117.30
2018-10-16T08:30:06.436Z,114.43
2018-10-16T08:32:35.071Z,114.73
2018-10-16T08:35:03.935Z,116.07
2018-10-16T08:37:56.756Z,118.67
2018-10-16T08:40:25.468Z,113.83
2018-10-16T08:45:10.713Z,113.77
2018-10-16T08:47:50.744Z,121.27
2018-10-16T08:50:31.521Z,119.27
2018-10-16T08:53:00.247Z,125.50
2018-10-16T08:55:28.976Z,128.63
2018-10-16T08:57:57.740Z,122.03
2018-10-16T09:00:26.460Z,115.50
2018-10-16T09:02:55.200Z,117.03
2018-10-16T09:05:24.040Z,115.97
2018-10-16T09:07:52.760Z,118.20
2018-10-16T09:10:21.487Z,122.27
2018-10-16T09:12:50.719Z,119.33
2018-10-16T09:15:21.119Z,117.07
2018-10-16T09:17:50.341Z,118.60
2018-10-16T09:20:20.214Z,119.50
2018-10-16T09:22:49.888Z,119.40
2018-10-16T09:25:19.543Z,116.90
2018-10-16T09:27:49.309Z,125.43
2018-10-16T09:30:18.042Z,118.67
2018-10-16T09:32:46.754Z,118.50
2018-10-16T09:35:15.456Z,126.67
2018-10-16T09:37:48.172Z,120.30
2018-10-16T09:40:17.339Z,117.90
2018-10-16T09:42:57.045Z,118.10
2018-10-16T09:45:27.921Z,123.37
2018-10-16T09:47:56.615Z,117.40
2018-10-16T09:50:25.361Z,120.23
2018-10-16T09:52:54.073Z,119.93
2018-10-16T09:55:22.784Z,118.60
2018-10-16T09:57:51.526Z,120.50
2018-10-16T10:00:25.745Z,116.00
2018-10-16T10:02:54.484Z,118.57
2018-10-16T10:05:23.196Z,125.33
2018-10-16T10:07:51.948Z,125.97
2018-10-16T10:10:20.661Z,125.00
2018-10-16T10:12:49.379Z,117.87
2018-10-16T10:15:18.088Z,120.40
2018-10-16T10:17:46.816Z,124.17
2018-10-16T10:20:15.529Z,124.60
2018-10-16T10:22:44.234Z,120.90
2018-10-16T10:25:13.474Z,121.17
2018-10-16T10:27:42.165Z,127.97
2018-10-16T10:30:11.440Z,124.60
2018-10-16T10:32:40.278Z,124.70
2018-10-16T10:35:11.736Z,119.00
2018-10-16T10:37:40.985Z,123.50
2018-10-16T10:40:10.789Z,125.37
2018-10-16T10:42:40.605Z,128.83
2018-10-16T10:45:10.638Z,136.10
2018-10-16T10:47:39.705Z,131.93
2018-10-16T10:50:10.506Z,123.47
2018-10-16T10:52:39.174Z,132.63
2018-10-16T10:55:08.644Z,136.90
2018-10-16T10:57:37.630Z,133.40
2018-10-16T11:00:08.680Z,126.00
2018-10-16T11:02:37.975Z,124.63
2018-10-16T11:05:07.284Z,125.83
2018-10-16T11:07:37.088Z,129.47
2018-10-16T11:13:19.881Z,128.90
2018-10-16T11:15:49.583Z,122.67
2018-10-16T11:18:18.640Z,125.27
2018-10-16T11:20:47.677Z,124.37
2018-10-16T11:23:17.398Z,128.03
2018-10-16T11:25:46.959Z,125.03
2018-10-16T11:28:16.760Z,127.23
2018-10-16T11:30:46.721Z,125.93
2018-10-16T11:33:16.782Z,130.40
2018-10-16T11:35:46.466Z,123.23
2018-10-16T11:38:15.164Z,124.07
2018-10-16T11:40:43.883Z,121.93
2018-10-16T11:43:12.583Z,122.97
2018-10-16T11:45:41.308Z,128.27
2018-10-16T11:48:10.020Z,121.70
2018-10-16T11:50:38.735Z,124.87
2018-10-16T11:53:07.449Z,123.83
2018-10-16T11:55:36.152Z,119.67
2018-10-16T11:58:04.983Z,119.67
2018-10-16T12:00:33.708Z,121.53
2018-10-16T12:03:02.411Z,118.73
2018-10-16T12:05:31.140Z,120.87
2018-10-16T12:07:59.943Z,116.43
2018-10-16T12:10:28.609Z,125.67
2018-10-16T12:12:57.348Z,120.03
2018-10-16T12:15:26.012Z,120.00
2018-10-16T12:18:02.184Z,121.20
2018-10-16T12:20:38.004Z,121.77
2018-10-16T12:23:06.711Z,123.50
2018-10-16T12:25:35.430Z,122.60
2018-10-16T12:28:04.148Z,121.67
2018-10-16T12:30:32.855Z,119.67
2018-10-16T12:33:01.596Z,119.37
2018-10-16T12:35:30.312Z,123.33
2018-10-16T12:37:59.040Z,122.63
2018-10-16T12:40:27.753Z,122.87
2018-10-16T12:42:56.572Z,116.83
2018-10-16T12:45:25.184Z,119.90
2018-10-16T12:47:53.943Z,117.83
2018-10-16T12:50:22.646Z,119.80
2018-10-16T12:52:51.389Z,118.43
2018-10-16T12:55:20.061Z,119.13
2018-10-16T12:57:48.767Z,120.13
2018-10-16T13:00:17.515Z,120.53
2018-10-16T13:02:46.220Z,118.60
2018-10-16T13:05:15.055Z,116.00
2018-10-16T13:07:43.651Z,116.47
2018-10-16T13:10:13.984Z,115.57
2018-10-16T13:12:43.697Z,120.03
2018-10-16T13:15:13.280Z,114.97
2018-10-16T13:17:41.992Z,115.70
2018-10-16T13:20:12.403Z,115.60
2018-10-16T13:22:41.719Z,121.03
2018-10-16T13:25:11.944Z,116.77
2018-10-16T13:27:40.658Z,114.60
2018-10-16T13:30:12.064Z,117.30
2018-10-16T13:32:40.848Z,114.27
2018-10-16T13:35:11.442Z,117.23
2018-10-16T13:37:40.076Z,114.87
2018-10-16T13:40:09.763Z,113.70
2018-10-16T13:42:47.653Z,116.83
2018-10-16T13:45:17.003Z,114.77
2018-10-16T13:47:45.711Z,114.43
2018-10-16T13:50:15.517Z,112.77
2018-10-16T13:52:44.588Z,113.70
2018-10-16T13:55:14.187Z,113.50
2018-10-16T14:14:32.429Z,116.60
2018-10-16T14:17:53.960Z,121.93
2018-10-16T14:20:22.680Z,121.57
2018-10-16T14:22:59.531Z,120.77
2018-10-16T14:25:28.210Z,120.03
2018-10-16T14:28:08.260Z,119.47
2018-10-16T14:30:37.177Z,120.07
2018-10-16T14:33:05.900Z,118.50
2018-10-16T14:35:35.445Z,121.47
2018-10-16T14:38:05.190Z,118.03
2018-10-16T14:40:35.148Z,120.73
2018-10-16T14:43:06.028Z,117.13
2018-10-16T14:45:35.346Z,117.07
2018-10-16T14:48:05.178Z,118.17
2018-10-16T14:50:34.403Z,116.70
2018-10-16T14:53:03.148Z,117.30
2018-10-16T14:55:31.852Z,119.97
2018-10-16T14:58:00.591Z,123.77
2018-10-16T15:00:29.288Z,119.07
2018-10-16T15:02:58.015Z,116.90
2018-10-16T15:05:26.728Z,121.73
2018-10-16T15:07:55.510Z,120.90
2018-10-16T15:10:24.198Z,127.20
2018-10-16T15:12:52.875Z,120.70
2018-10-16T15:15:21.575Z,120.27
2018-10-16T15:17:50.298Z,125.70
2018-10-16T15:20:19.030Z,119.83
2018-10-16T15:22:47.764Z,119.00
2018-10-16T15:25:16.500Z,123.13
2018-10-16T15:27:45.223Z,118.47
2018-10-16T15:30:13.939Z,121.03
2018-10-16T15:32:42.663Z,119.33
2018-10-16T15:35:11.724Z,121.33
2018-10-16T15:37:40.436Z,118.80
2018-10-16T15:40:10.613Z,121.80
2018-10-16T15:42:39.524Z,116.00
2018-10-16T15:45:09.596Z,120.23
2018-10-16T15:47:38.659Z,117.87
2018-10-16T15:50:08.015Z,118.17
2018-10-16T15:52:36.688Z,118.50
2018-10-16T15:55:06.336Z,118.87
2018-10-16T15:57:35.107Z,121.13
2018-10-16T16:00:03.887Z,117.63
2018-10-16T16:02:51.755Z,120.10
2018-10-16T16:05:21.931Z,116.83
2018-10-16T16:07:51.269Z,122.03
2018-10-16T16:10:20.747Z,117.17
2018-10-16T16:12:53.307Z,122.47
2018-10-16T16:15:27.947Z,121.53
2018-10-16T16:17:57.485Z,118.77
2018-10-16T16:20:27.063Z,122.63
2018-10-16T16:23:01.733Z,117.97
2018-10-16T16:25:31.487Z,120.80
2018-10-16T16:28:00.397Z,140.00
2018-10-16T16:30:29.048Z,125.70
2018-10-16T16:32:57.764Z,131.10
2018-10-16T16:35:26.487Z,123.97
2018-10-16T16:37:55.257Z,133.10
2018-10-16T16:40:23.923Z,124.10
2018-10-16T16:42:52.632Z,122.27
2018-10-16T16:45:21.351Z,121.73
2018-10-16T16:47:50.081Z,120.93
2018-10-16T16:50:18.805Z,120.00
2018-10-16T16:52:47.521Z,127.87
2018-10-16T16:55:16.487Z,122.43
2018-10-16T16:57:45.206Z,126.70
2018-10-16T17:00:14.776Z,121.67
2018-10-16T17:02:44.638Z,121.60
2018-10-16T17:05:13.864Z,128.67
2018-10-16T17:07:43.293Z,122.67
2018-10-16T17:10:12.113Z,126.17
2018-10-16T17:12:41.287Z,122.50
2018-10-16T17:15:12.631Z,121.17
2018-10-16T17:17:41.546Z,123.27
2018-10-16T17:20:11.286Z,122.43
2018-10-16T17:22:39.948Z,121.33
2018-10-16T17:25:10.439Z,123.37
2018-10-16T17:27:39.000Z,118.93
2018-10-16T17:30:10.845Z,119.83
2018-10-16T17:32:39.789Z,120.27
2018-10-16T17:35:09.483Z,121.33
2018-10-16T17:37:38.480Z,119.93
2018-10-16T17:40:08.514Z,118.47
2018-10-16T17:42:37.417Z,121.97
2018-10-16T17:45:07.250Z,118.33
2018-10-16T17:47:36.321Z,118.73
2018-10-16T17:50:07.485Z,117.93
2018-10-16T17:52:36.440Z,118.77
2018-10-16T17:55:05.696Z,118.57
2018-10-16T17:57:34.493Z,118.20
2018-10-16T18:00:03.135Z,118.33
2018-10-16T18:02:31.911Z,121.37
2018-10-16T18:05:00.590Z,118.13
2018-10-16T18:07:29.308Z,117.80
2018-10-16T18:09:58.020Z,119.53
2018-10-16T18:12:26.732Z,117.97
2018-10-16T18:14:55.456Z,120.83
2018-10-16T18:17:24.327Z,119.63
2018-10-16T18:19:53.040Z,120.47
2018-10-16T18:22:23.856Z,121.87
2018-10-16T18:24:52.597Z,122.70
2018-10-16T18:27:21.312Z,120.63
2018-10-16T18:29:50.050Z,119.10
2018-10-16T18:32:18.767Z,117.80
2018-10-16T18:34:47.488Z,122.20
2018-10-16T18:37:16.221Z,120.03
2018-10-16T18:39:45.128Z,123.37
2018-10-16T18:42:13.667Z,121.53
2018-10-16T18:44:42.376Z,124.10
2018-10-16T18:47:11.099Z,120.47
2018-10-16T18:49:39.813Z,121.20
2018-10-16T18:52:08.532Z,120.63
2018-10-16T18:54:37.476Z,120.97
2018-10-16T18:57:06.634Z,121.03
2018-10-16T18:59:35.297Z,120.80
2018-10-16T19:02:04.275Z,123.77
2018-10-16T19:04:33.108Z,123.47
2018-10-16T19:07:02.040Z,123.60
2018-10-16T19:09:30.772Z,122.27
2018-10-16T19:11:59.500Z,119.67
2018-10-16T19:14:28.252Z,121.43
2018-10-16T19:16:56.998Z,119.87
2018-10-16T19:19:25.720Z,119.07
2018-10-16T19:21:54.464Z,123.40
2018-10-16T19:24:23.195Z,121.77
2018-10-16T19:26:51.953Z,120.33
2018-10-16T19:29:20.632Z,120.23
2018-10-16T19:31:49.374Z,122.80
2018-10-16T19:34:18.708Z,119.33
2018-10-16T19:36:47.425Z,118.53
2018-10-16T19:39:16.180Z,116.90
2018-10-16T19:41:44.867Z,116.73
2018-10-16T19:44:13.581Z,117.93
2018-10-16T19:46:42.300Z,117.00
2018-10-16T19:49:11.023Z,117.90
2018-10-16T19:51:47.993Z,123.00
2018-10-16T19:54:17.402Z,118.43
2018-10-16T19:56:46.116Z,118.33
2018-10-16T19:59:15.292Z,118.67
2018-10-16T20:01:44.716Z,116.73
2018-10-16T20:04:13.411Z,119.07
2018-10-16T20:06:42.134Z,119.07
2018-10-16T20:09:11.874Z,120.63
2018-10-16T20:11:40.529Z,122.97
2018-10-16T20:14:09.297Z,117.60
2018-10-16T20:16:38.008Z,118.53
2018-10-16T20:19:07.047Z,121.27
2018-10-16T20:21:35.756Z,121.67
2018-10-16T20:24:04.892Z,119.23
2018-10-16T20:26:33.610Z,121.17
2018-10-16T20:29:02.412Z,127.80
2018-10-16T20:31:31.136Z,125.80
2018-10-16T20:33:59.871Z,124.20
2018-10-16T20:36:28.655Z,121.43
2018-10-16T20:38:57.553Z,123.90
2018-10-16T20:41:26.283Z,124.93
2018-10-16T20:43:54.995Z,123.20
2018-10-16T20:46:23.708Z,121.87
2018-10-16T20:48:52.467Z,120.83
2018-10-16T20:54:44.344Z,122.73
2018-10-16T20:57:13.059Z,125.43
2018-10-16T20:59:42.676Z,124.57
2018-10-16T21:02:11.452Z,126.80
2018-10-16T21:04:40.220Z,123.23
2018-10-16T21:07:08.903Z,125.23
2018-10-16T21:09:37.604Z,123.07
2018-10-16T21:12:06.507Z,122.13
2018-10-16T21:14:35.233Z,125.43
2018-10-16T21:17:03.980Z,125.17
2018-10-16T21:19:32.727Z,123.83
2018-10-16T21:22:01.399Z,121.27
2018-10-16T21:24:30.112Z,123.73
2018-10-16T21:27:07.219Z,121.90
2018-10-16T21:29:36.215Z,122.20
2018-10-16T21:32:05.524Z,121.87
2018-10-16T21:34:34.240Z,120.40
2018-10-16T21:37:03.004Z,122.40
2018-10-16T21:39:31.696Z,121.07
2018-10-16T21:42:00.404Z,121.83
2018-10-16T21:44:29.119Z,122.83
2018-10-16T21:46:57.832Z,123.77
2018-10-16T21:49:26.548Z,120.13
2018-10-16T21:51:55.255Z,122.83
2018-10-16T21:54:23.983Z,121.70
2018-10-16T21:56:52.698Z,121.00
2018-10-16T21:59:21.442Z,120.77
2018-10-16T22:01:55.439Z,122.57
2018-10-16T22:04:24.251Z,119.70
2018-10-16T22:06:53.061Z,118.43
2018-10-16T22:09:21.748Z,118.87
2018-10-16T22:11:50.461Z,121.53
2018-10-16T22:14:19.179Z,117.33
2018-10-16T22:16:47.884Z,125.23
2018-10-16T22:19:16.666Z,118.77
2018-10-16T22:21:45.291Z,120.03
2018-10-16T22:24:14.024Z,118.13
2018-10-16T22:26:42.735Z,119.23
2018-10-16T22:29:11.519Z,120.77
2018-10-16T22:31:40.151Z,118.87
2018-10-16T22:34:08.859Z,118.60
2018-10-16T22:36:37.580Z,119.10
2018-10-16T22:39:08.296Z,123.50
2018-10-16T22:41:37.239Z,115.53
2018-10-16T22:44:06.791Z,118.27
2018-10-16T22:46:35.941Z,116.83
2018-10-16T22:49:05.136Z,116.57
2018-10-16T22:51:34.028Z,116.57
2018-10-16T22:54:02.811Z,119.43
2018-10-16T22:56:31.535Z,120.10
2018-10-16T22:59:00.248Z,117.87
2018-10-16T23:01:28.969Z,118.23
2018-10-16T23:03:57.709Z,117.83
2018-10-16T23:06:26.427Z,119.47
2018-10-16T23:08:55.339Z,118.77
2018-10-16T23:11:24.108Z,118.47
2018-10-16T23:13:52.811Z,120.03
2018-10-16T23:16:21.519Z,121.87
2018-10-16T23:18:50.227Z,120.77
2018-10-16T23:21:18.944Z,119.63
2018-10-16T23:23:47.656Z,120.00
2018-10-16T23:26:16.367Z,118.43
2018-10-16T23:28:45.080Z,120.37
2018-10-16T23:31:13.820Z,119.93
2018-10-16T23:33:42.509Z,121.97
2018-10-16T23:36:11.215Z,116.83
2018-10-16T23:38:39.946Z,119.47
2018-10-16T23:41:08.728Z,119.17
2018-10-16T23:43:37.426Z,117.67
2018-10-16T23:46:06.564Z,119.33
2018-10-16T23:48:35.552Z,121.73
2018-10-16T23:51:04.509Z,118.93
2018-10-16T23:53:33.236Z,117.67
2018-10-16T23:56:01.944Z,119.23
2018-10-16T23:58:30.660Z,118.63
